Time;durP1;ratioP1;P1;durP2;ratioP2;P2;SDS_P1;SDS_P2;PMS_P1;PMS_P2;Temp;Humidity;BMP_temperature;BMP_pressure;BME280_temperature;BME280_humidity;BME280_pressure;Samples;Min_cycle;Max_cycle;Signal;HPM_P1;HPM_P2
2023/11/27 00:01:13;;;;;;;4.80;3.00;;;5.00;99.90;;;;;;5022214;28;20224;-72
2023/11/27 00:03:39;;;;;;;4.87;3.00;;;5.00;99.90;;;;;;5032474;28;20221;-72
2023/11/27 00:06:08;;;;;;;4.93;3.23;;;5.00;99.90;;;;;;5008055;28;20238;-73
2023/11/27 00:08:35;;;;;;;7.30;3.43;;;5.00;99.90;;;;;;5025594;28;20470;-73
2023/11/27 00:11:00;;;;;;;3.00;2.70;;;4.90;99.90;;;;;;5009404;28;20517;-72
2023/11/27 00:13:26;;;;;;;5.30;3.90;;;4.90;99.90;;;;;;5013428;28;20459;-73
2023/11/27 00:15:52;;;;;;;5.80;3.00;;;4.90;99.90;;;;;;5037926;28;20205;-72
2023/11/27 00:18:17;;;;;;;5.30;2.90;;;4.90;99.90;;;;;;5037520;28;20248;-72
2023/11/27 00:20:43;;;;;;;4.93;3.37;;;4.90;99.90;;;;;;5009016;28;20216;-72
2023/11/27 00:23:10;;;;;;;6.10;2.80;;;4.90;99.90;;;;;;5017900;28;20229;-73
2023/11/27 00:25:35;;;;;;;2.33;2.13;;;4.90;99.90;;;;;;5055591;28;20623;-72
2023/11/27 00:28:01;;;;;;;7.37;3.40;;;5.00;99.90;;;;;;5028875;28;20462;-73
2023/11/27 00:30:27;;;;;;;3.77;3.13;;;4.90;99.90;;;;;;5040374;28;20999;-71
2023/11/27 00:32:53;;;;;;;5.87;4.17;;;4.90;99.90;;;;;;5020767;28;20467;-73
2023/11/27 00:35:19;;;;;;;3.23;2.90;;;4.80;99.90;;;;;;5051636;28;20215;-72
2023/11/27 00:37:44;;;;;;;3.90;2.80;;;4.80;99.90;;;;;;5021455;28;20217;-72
2023/11/27 00:40:10;;;;;;;5.00;3.20;;;4.80;99.90;;;;;;5040516;28;20228;-73
2023/11/27 00:42:36;;;;;;;4.73;3.50;;;4.80;99.90;;;;;;5027343;28;20220;-72
2023/11/27 00:45:01;;;;;;;6.37;3.50;;;4.70;99.90;;;;;;5014754;28;20545;-72
2023/11/27 00:47:27;;;;;;;6.33;2.97;;;4.70;99.90;;;;;;5044905;28;20212;-73
2023/11/27 00:49:53;;;;;;;4.47;2.10;;;4.70;99.90;;;;;;5010274;28;20212;-72
2023/11/27 00:52:19;;;;;;;6.50;3.10;;;4.60;99.90;;;;;;5041347;28;20222;-76
2023/11/27 00:54:47;;;;;;;3.50;2.30;;;4.50;99.90;;;;;;5039392;28;20832;-75
2023/11/27 00:57:13;;;;;;;2.00;1.90;;;4.50;99.90;;;;;;5055644;28;20219;-77
2023/11/27 00:59:41;;;;;;;3.20;2.20;;;4.60;99.90;;;;;;5021587;28;20463;-78
2023/11/27 01:02:07;;;;;;;4.00;2.43;;;4.70;99.90;;;;;;5062234;28;20255;-76
2023/11/27 01:04:33;;;;;;;2.73;2.50;;;4.60;99.90;;;;;;5068637;28;20532;-76
2023/11/27 01:07:02;;;;;;;7.73;2.77;;;4.60;99.90;;;;;;5056274;28;20575;-75
2023/11/27 01:09:32;;;;;;;5.43;2.53;;;4.60;99.90;;;;;;5026624;28;20454;-76
2023/11/27 01:12:02;;;;;;;4.23;2.63;;;4.60;99.90;;;;;;5009206;28;20969;-75
2023/11/27 01:14:27;;;;;;;7.50;2.63;;;4.70;99.90;;;;;;5069822;28;20446;-74
2023/11/27 01:16:53;;;;;;;2.53;1.90;;;4.80;99.90;;;;;;5050802;28;20442;-75
2023/11/27 01:19:19;;;;;;;2.13;2.00;;;4.60;99.90;;;;;;5065327;28;20279;-74
2023/11/27 01:21:44;;;;;;;5.30;2.20;;;4.60;99.90;;;;;;5035890;28;20302;-76
2023/11/27 01:24:10;;;;;;;2.03;1.83;;;4.60;99.90;;;;;;5045149;28;20250;-74
2023/11/27 01:26:36;;;;;;;2.53;2.33;;;4.60;99.90;;;;;;5067097;28;20223;-75
2023/11/27 01:29:01;;;;;;;3.50;1.90;;;4.60;99.90;;;;;;5031597;28;20224;-76
2023/11/27 01:31:27;;;;;;;5.20;2.30;;;4.60;99.90;;;;;;5062711;28;20227;-72
2023/11/27 01:33:58;;;;;;;4.50;2.20;;;4.60;99.90;;;;;;5033638;28;20209;-73
2023/11/27 01:36:24;;;;;;;3.10;1.50;;;4.50;99.90;;;;;;5032606;28;20222;-76
2023/11/27 01:38:50;;;;;;;6.03;2.27;;;4.60;99.90;;;;;;5026485;28;20443;-76
2023/11/27 01:41:16;;;;;;;1.93;1.77;;;4.60;99.90;;;;;;5030313;28;20214;-76
2023/11/27 01:43:42;;;;;;;3.57;2.20;;;4.60;99.90;;;;;;5043023;28;20464;-75
2023/11/27 01:46:24;;;;;;;4.00;2.33;;;4.60;99.90;;;;;;5060219;28;20220;-76
2023/11/27 01:48:52;;;;;;;2.73;2.00;;;4.50;99.90;;;;;;5065916;28;20855;-75
2023/11/27 01:51:18;;;;;;;4.27;2.43;;;4.50;99.90;;;;;;5019826;28;20524;-75
2023/11/27 01:53:45;;;;;;;5.50;2.53;;;4.60;99.90;;;;;;5011510;28;20439;-75
2023/11/27 01:56:11;;;;;;;8.13;2.23;;;4.60;99.90;;;;;;5029929;28;20208;-75
2023/11/27 01:58:37;;;;;;;1.87;1.73;;;4.50;99.90;;;;;;5038359;28;20803;-75
2023/11/27 02:01:03;;;;;;;3.13;1.87;;;4.40;99.90;;;;;;5041970;28;20617;-76
2023/11/27 02:03:28;;;;;;;5.83;2.27;;;4.50;99.90;;;;;;5027754;28;20216;-75
2023/11/27 02:05:54;;;;;;;10.53;2.60;;;4.50;99.90;;;;;;5050523;28;20450;-75
2023/11/27 02:08:20;;;;;;;4.70;2.57;;;4.50;99.90;;;;;;5032312;28;20212;-76
2023/11/27 02:10:45;;;;;;;4.50;1.93;;;4.60;99.90;;;;;;5061610;28;20212;-77
2023/11/27 02:13:12;;;;;;;3.90;2.40;;;4.60;99.90;;;;;;5028994;28;20231;-75
2023/11/27 02:15:38;;;;;;;4.67;1.80;;;4.70;99.90;;;;;;5064152;28;20285;-75
2023/11/27 02:18:04;;;;;;;4.20;2.23;;;4.70;99.90;;;;;;5025299;28;20455;-75
2023/11/27 02:20:29;;;;;;;7.00;2.80;;;4.80;99.90;;;;;;5043327;28;20223;-75
2023/11/27 02:22:55;;;;;;;2.97;1.70;;;4.80;99.90;;;;;;5040472;28;20454;-75
2023/11/27 02:25:21;;;;;;;2.17;1.97;;;4.80;99.90;;;;;;5047454;28;20215;-75
2023/11/27 02:27:46;;;;;;;2.77;2.00;;;4.80;99.90;;;;;;5043123;28;20222;-75
2023/11/27 02:30:12;;;;;;;2.20;1.60;;;4.80;99.90;;;;;;5039280;28;20236;-75
2023/11/27 02:32:38;;;;;;;3.97;2.80;;;4.80;99.90;;;;;;5062110;28;20227;-76
2023/11/27 02:35:04;;;;;;;3.17;2.10;;;4.90;99.90;;;;;;5045694;28;20449;-75
2023/11/27 02:37:30;;;;;;;5.33;2.63;;;4.90;99.90;;;;;;5026901;28;20234;-75
2023/11/27 02:39:56;;;;;;;2.23;2.03;;;4.90;99.90;;;;;;5023539;28;20554;-75
2023/11/27 02:42:22;;;;;;;6.97;2.60;;;4.90;99.90;;;;;;5030803;28;20349;-75
2023/11/27 02:44:47;;;;;;;4.67;2.20;;;4.90;99.90;;;;;;5043417;28;20247;-75
2023/11/27 02:47:13;;;;;;;5.20;2.20;;;4.90;99.90;;;;;;5039059;28;20486;-76
2023/11/27 02:49:39;;;;;;;3.80;2.23;;;4.90;99.90;;;;;;5027820;28;20208;-75
2023/11/27 02:52:04;;;;;;;10.60;2.03;;;4.90;99.90;;;;;;5022938;28;20239;-75
2023/11/27 02:54:30;;;;;;;4.30;2.40;;;4.80;99.90;;;;;;5038174;28;20213;-75
2023/11/27 02:56:56;;;;;;;3.43;1.70;;;4.70;99.90;;;;;;5025699;28;20212;-75
2023/11/27 02:59:22;;;;;;;3.70;2.00;;;4.70;99.90;;;;;;5026808;28;20213;-75
2023/11/27 03:01:47;;;;;;;2.80;2.57;;;4.80;99.90;;;;;;5042797;28;20234;-75
2023/11/27 03:04:13;;;;;;;2.90;2.20;;;4.80;99.90;;;;;;5063333;28;20504;-75
2023/11/27 03:06:39;;;;;;;2.47;2.07;;;4.80;99.90;;;;;;5044857;28;20717;-75
2023/11/27 03:09:05;;;;;;;6.90;3.27;;;4.80;99.90;;;;;;5022045;28;20465;-76
2023/11/27 03:11:30;;;;;;;4.67;2.50;;;4.70;99.90;;;;;;5069049;28;20693;-75
2023/11/27 03:13:56;;;;;;;4.63;2.40;;;4.70;99.90;;;;;;5031674;28;20215;-75
2023/11/27 03:16:22;;;;;;;4.40;2.80;;;4.70;99.90;;;;;;5042514;28;20247;-75
2023/11/27 03:18:47;;;;;;;4.60;2.43;;;4.70;99.90;;;;;;5035885;28;20216;-75
2023/11/27 03:21:22;;;;;;;3.97;2.37;;;4.80;99.90;;;;;;5052576;28;20285;-75
2023/11/27 03:23:48;;;;;;;5.70;3.17;;;4.80;99.90;;;;;;5020239;28;20299;-75
2023/11/27 03:26:14;;;;;;;6.47;3.33;;;4.80;99.90;;;;;;5033020;28;20447;-76
2023/11/27 03:28:40;;;;;;;5.93;2.63;;;4.70;99.90;;;;;;5016578;28;20463;-76
2023/11/27 03:31:05;;;;;;;2.57;1.90;;;4.70;99.90;;;;;;5036577;28;20833;-75
2023/11/27 03:33:31;;;;;;;4.77;2.50;;;4.70;99.90;;;;;;5027143;28;20220;-75
2023/11/27 03:35:57;;;;;;;6.47;1.90;;;4.80;99.90;;;;;;5048019;28;20207;-75
2023/11/27 03:38:23;;;;;;;2.17;1.83;;;4.80;99.90;;;;;;5067876;28;20298;-76
2023/11/27 03:40:48;;;;;;;3.00;2.37;;;4.80;99.90;;;;;;5019346;28;20546;-75
2023/11/27 03:43:14;;;;;;;3.20;2.20;;;4.80;99.90;;;;;;5054962;28;20310;-75
2023/11/27 03:45:40;;;;;;;3.30;2.40;;;4.80;99.90;;;;;;5028135;28;20246;-76
2023/11/27 03:48:06;;;;;;;2.03;1.73;;;4.80;99.90;;;;;;5023145;28;20217;-75
2023/11/27 03:50:34;;;;;;;3.43;2.33;;;4.90;99.90;;;;;;5027462;28;20212;-75
2023/11/27 03:53:00;;;;;;;2.87;2.10;;;4.90;99.90;;;;;;5014255;28;20473;-75
2023/11/27 03:55:26;;;;;;;5.90;2.57;;;4.80;99.90;;;;;;5025211;28;20530;-75
2023/11/27 03:57:51;;;;;;;4.13;2.80;;;4.80;99.90;;;;;;5026519;28;20216;-75
2023/11/27 04:00:18;;;;;;;5.53;2.80;;;4.80;99.90;;;;;;5029429;28;20243;-73
2023/11/27 04:02:47;;;;;;;3.70;2.97;;;4.80;99.90;;;;;;5043312;28;20470;-73
2023/11/27 04:05:12;;;;;;;4.77;2.57;;;4.80;99.90;;;;;;5017713;28;20531;-73
2023/11/27 04:07:39;;;;;;;5.50;2.70;;;4.60;99.90;;;;;;5019218;28;20454;-73
2023/11/27 04:10:05;;;;;;;3.30;2.37;;;4.60;99.90;;;;;;5033168;28;20221;-73
2023/11/27 04:12:32;;;;;;;2.50;1.70;;;4.70;99.90;;;;;;5025063;28;20451;-73
2023/11/27 04:14:59;;;;;;;3.03;2.10;;;4.80;99.90;;;;;;5040217;28;20462;-73
2023/11/27 04:17:25;;;;;;;8.77;1.80;;;4.80;99.90;;;;;;5055572;28;20454;-73
2023/11/27 04:19:51;;;;;;;4.37;2.17;;;4.80;99.90;;;;;;5021779;28;20526;-73
2023/11/27 04:22:17;;;;;;;8.80;2.90;;;4.80;99.90;;;;;;5046215;28;20230;-72
2023/11/27 04:24:43;;;;;;;1.77;1.60;;;4.80;99.90;;;;;;5046589;28;20478;-73
2023/11/27 04:27:10;;;;;;;7.87;3.00;;;4.80;99.90;;;;;;5037658;28;20457;-73
2023/11/27 04:29:36;;;;;;;3.00;2.17;;;4.80;99.90;;;;;;5048340;28;20496;-73
2023/11/27 04:32:01;;;;;;;8.03;2.67;;;4.70;99.90;;;;;;5046110;28;20257;-73
2023/11/27 04:34:27;;;;;;;6.47;2.43;;;4.70;99.90;;;;;;5067134;28;20278;-73
2023/11/27 04:36:52;;;;;;;7.00;2.47;;;4.80;99.90;;;;;;5020287;28;20208;-72
2023/11/27 04:39:18;;;;;;;2.10;1.90;;;4.70;99.90;;;;;;5049174;28;20208;-72
2023/11/27 04:41:44;;;;;;;3.57;2.00;;;4.70;99.90;;;;;;5033958;28;20207;-73
2023/11/27 04:44:10;;;;;;;3.37;2.00;;;4.70;99.90;;;;;;5054791;28;20307;-74
2023/11/27 04:46:37;;;;;;;2.70;2.27;;;4.80;99.90;;;;;;5044367;28;20215;-73
2023/11/27 04:49:03;;;;;;;2.80;2.30;;;4.80;99.90;;;;;;5052523;28;20223;-73
2023/11/27 04:51:30;;;;;;;2.40;2.20;;;4.80;99.90;;;;;;5041561;28;20475;-74
2023/11/27 04:53:56;;;;;;;5.73;2.40;;;4.80;99.90;;;;;;5037695;28;20543;-73
2023/11/27 04:56:22;;;;;;;3.20;2.00;;;4.80;99.90;;;;;;5035799;28;20520;-71
2023/11/27 04:58:47;;;;;;;3.40;2.50;;;4.80;99.90;;;;;;5063360;28;20450;-73
2023/11/27 05:01:13;;;;;;;4.57;2.83;;;4.80;99.90;;;;;;5056998;28;20268;-73
2023/11/27 05:03:39;;;;;;;3.47;2.10;;;4.80;99.90;;;;;;5037785;28;20215;-73
2023/11/27 05:06:05;;;;;;;4.30;2.57;;;4.80;99.90;;;;;;5033299;28;20680;-73
2023/11/27 05:08:30;;;;;;;6.00;2.40;;;4.80;99.90;;;;;;5041910;28;20213;-72
2023/11/27 05:10:56;;;;;;;3.67;2.40;;;4.80;99.90;;;;;;5017780;28;20708;-73
2023/11/27 05:13:21;;;;;;;4.13;2.37;;;4.80;99.90;;;;;;5026223;28;20217;-72
2023/11/27 05:15:47;;;;;;;4.07;2.70;;;4.80;99.90;;;;;;5047548;28;20212;-74
2023/11/27 05:18:13;;;;;;;5.83;2.80;;;4.80;99.90;;;;;;5035131;28;20266;-74
2023/11/27 05:20:38;;;;;;;3.83;2.60;;;4.80;99.90;;;;;;5018766;28;20216;-73
2023/11/27 05:23:04;;;;;;;3.87;2.57;;;4.80;99.90;;;;;;5028349;28;20238;-73
2023/11/27 05:25:30;;;;;;;4.40;3.47;;;4.80;99.90;;;;;;5033924;28;20299;-72
2023/11/27 05:27:55;;;;;;;4.47;3.10;;;4.80;99.90;;;;;;5039502;28;20244;-73
2023/11/27 05:30:21;;;;;;;3.23;2.80;;;4.80;99.90;;;;;;5039262;28;20236;-73
2023/11/27 05:32:49;;;;;;;5.30;3.20;;;4.80;99.90;;;;;;5021737;28;20220;-73
2023/11/27 05:35:14;;;;;;;4.23;2.73;;;4.80;99.90;;;;;;5065963;28;20488;-73
2023/11/27 05:37:40;;;;;;;8.53;3.10;;;4.70;99.90;;;;;;5056424;28;20485;-73
2023/11/27 05:40:07;;;;;;;5.30;3.30;;;4.70;99.90;;;;;;5060096;28;20238;-73
2023/11/27 05:42:39;;;;;;;4.43;2.53;;;4.70;99.90;;;;;;5048026;28;20223;-73
2023/11/27 05:45:10;;;;;;;6.63;3.27;;;4.70;99.90;;;;;;5062364;28;20453;-72
2023/11/27 05:47:39;;;;;;;4.00;2.97;;;4.70;99.90;;;;;;5055682;28;20453;-73
2023/11/27 05:50:06;;;;;;;4.07;2.80;;;4.80;99.90;;;;;;5057535;28;20454;-73
2023/11/27 05:52:32;;;;;;;6.50;3.53;;;4.70;99.90;;;;;;5051831;28;20461;-73
2023/11/27 05:54:59;;;;;;;7.90;4.00;;;4.70;99.90;;;;;;5065298;28;20458;-73
2023/11/27 05:57:25;;;;;;;2.83;2.40;;;4.70;99.90;;;;;;5047580;28;20457;-72
2023/11/27 05:59:50;;;;;;;8.20;3.57;;;4.50;99.90;;;;;;5051736;28;20461;-73
2023/11/27 06:02:16;;;;;;;8.50;3.57;;;4.50;99.90;;;;;;5030614;28;20219;-73
2023/11/27 06:04:43;;;;;;;9.83;5.47;;;4.40;99.90;;;;;;5047426;28;20224;-72
2023/11/27 06:07:09;;;;;;;3.50;3.00;;;4.50;99.90;;;;;;5069546;28;20230;-73
2023/11/27 06:09:34;;;;;;;3.37;2.90;;;4.60;99.90;;;;;;5043177;28;20463;-72
2023/11/27 06:12:00;;;;;;;5.43;3.30;;;4.60;99.90;;;;;;5038162;28;20224;-71
2023/11/27 06:14:26;;;;;;;9.93;3.40;;;4.50;99.90;;;;;;5065363;28;20215;-73
2023/11/27 06:16:51;;;;;;;10.00;2.97;;;4.50;99.90;;;;;;5027724;28;20640;-73
2023/11/27 06:19:18;;;;;;;5.43;2.93;;;4.50;99.90;;;;;;5039437;28;20215;-72
2023/11/27 06:21:44;;;;;;;3.30;2.40;;;4.40;99.90;;;;;;5029124;28;20235;-73
2023/11/27 06:24:10;;;;;;;7.67;4.20;;;4.40;99.90;;;;;;5028760;28;20569;-72
2023/11/27 06:26:36;;;;;;;10.30;3.43;;;4.30;99.90;;;;;;5042490;28;20238;-72
2023/11/27 06:29:02;;;;;;;3.87;3.20;;;4.30;99.90;;;;;;5016460;28;20460;-73
2023/11/27 06:31:28;;;;;;;5.07;3.30;;;4.30;99.90;;;;;;5026861;28;20262;-73
2023/11/27 06:33:53;;;;;;;4.60;2.80;;;4.30;99.90;;;;;;5020372;28;20455;-72
2023/11/27 06:36:19;;;;;;;4.93;3.27;;;4.20;99.90;;;;;;5006333;28;20225;-73
2023/11/27 06:38:44;;;;;;;4.90;2.47;;;4.30;99.90;;;;;;5039735;28;20217;-73
2023/11/27 06:41:11;;;;;;;5.37;3.50;;;4.30;99.90;;;;;;5035442;28;20226;-73
2023/11/27 06:43:36;;;;;;;4.83;3.33;;;4.30;99.90;;;;;;5066410;28;20235;-73
2023/11/27 06:46:02;;;;;;;8.33;3.20;;;4.20;99.90;;;;;;5025694;28;21032;-73
2023/11/27 06:48:29;;;;;;;5.63;3.00;;;4.20;99.90;;;;;;5025362;28;20778;-72
2023/11/27 06:50:55;;;;;;;5.10;3.30;;;4.10;99.90;;;;;;5025736;28;20218;-71
2023/11/27 06:53:24;;;;;;;6.60;3.20;;;4.10;99.90;;;;;;5025702;28;20557;-72
2023/11/27 06:55:49;;;;;;;4.27;2.83;;;4.00;99.90;;;;;;5033593;28;20558;-73
2023/11/27 06:58:15;;;;;;;4.47;3.03;;;4.10;99.90;;;;;;5025030;28;20534;-72
2023/11/27 07:00:41;;;;;;;3.93;3.13;;;4.00;99.90;;;;;;5044750;28;20282;-73
2023/11/27 07:03:07;;;;;;;4.73;3.17;;;4.00;99.90;;;;;;5026601;28;20216;-73
2023/11/27 07:05:33;;;;;;;4.40;3.10;;;3.90;99.90;;;;;;5064208;28;20262;-72
2023/11/27 07:07:59;;;;;;;4.47;3.00;;;3.90;99.90;;;;;;5040052;28;20871;-73
2023/11/27 07:10:25;;;;;;;3.47;3.13;;;3.90;99.90;;;;;;5033497;28;20462;-73
2023/11/27 07:12:51;;;;;;;4.10;2.90;;;3.90;99.90;;;;;;5041272;28;20223;-72
2023/11/27 07:15:17;;;;;;;5.13;4.00;;;3.90;99.90;;;;;;5038114;28;20251;-72
2023/11/27 07:17:44;;;;;;;4.97;2.97;;;4.00;99.90;;;;;;5050080;28;20492;-72
2023/11/27 07:20:17;;;;;;;7.03;3.30;;;3.90;99.90;;;;;;5031018;28;20732;-72
2023/11/27 07:22:44;;;;;;;4.80;3.00;;;3.90;99.90;;;;;;5047445;28;20514;-73
2023/11/27 07:25:12;;;;;;;3.23;2.40;;;3.90;99.90;;;;;;5032469;28;20451;-73
2023/11/27 07:27:37;;;;;;;6.03;3.00;;;3.90;99.90;;;;;;5032023;28;21031;-72
2023/11/27 07:30:04;;;;;;;4.67;3.43;;;4.00;99.90;;;;;;5004782;28;20599;-73
2023/11/27 07:32:30;;;;;;;5.43;3.50;;;3.90;99.90;;;;;;5031019;28;20227;-73
2023/11/27 07:34:55;;;;;;;4.63;3.50;;;4.00;99.90;;;;;;5035916;28;20466;-72
2023/11/27 07:37:22;;;;;;;4.70;3.57;;;4.00;99.90;;;;;;5042817;28;20706;-73
2023/11/27 07:39:48;;;;;;;6.17;3.07;;;4.00;99.90;;;;;;5022800;28;20236;-73
2023/11/27 07:42:14;;;;;;;4.70;3.13;;;4.00;99.90;;;;;;5067706;28;20864;-72
2023/11/27 07:44:43;;;;;;;6.50;3.83;;;4.00;99.90;;;;;;5068311;28;20216;-72
2023/11/27 07:47:09;;;;;;;5.13;2.97;;;4.00;99.90;;;;;;5046219;28;20446;-72
2023/11/27 07:49:35;;;;;;;7.53;3.73;;;4.00;99.90;;;;;;5050784;28;20454;-72
2023/11/27 07:52:01;;;;;;;4.83;3.47;;;4.10;99.90;;;;;;5059013;28;20561;-72
2023/11/27 07:54:27;;;;;;;6.07;3.47;;;4.00;99.90;;;;;;5046182;28;20525;-72
2023/11/27 07:56:53;;;;;;;4.03;2.80;;;4.00;99.90;;;;;;5030139;28;20279;-73
2023/11/27 07:59:19;;;;;;;8.67;3.60;;;4.00;99.90;;;;;;5046429;28;20477;-73
2023/11/27 08:01:45;;;;;;;3.97;3.57;;;3.90;99.90;;;;;;5050471;28;20211;-73
2023/11/27 08:04:11;;;;;;;10.27;3.50;;;4.00;99.90;;;;;;5069936;28;20212;-72
2023/11/27 08:06:37;;;;;;;5.07;3.20;;;4.00;99.90;;;;;;5031864;28;20231;-71
2023/11/27 08:09:04;;;;;;;5.30;3.80;;;3.90;99.90;;;;;;5067023;28;20595;-72
2023/11/27 08:11:34;;;;;;;4.23;2.70;;;4.00;99.90;;;;;;5070878;28;20860;-72
2023/11/27 08:14:00;;;;;;;7.27;3.30;;;4.00;99.90;;;;;;5066021;28;20454;-72
2023/11/27 08:16:26;;;;;;;3.33;2.50;;;4.10;99.90;;;;;;5060094;28;20450;-72
2023/11/27 08:18:51;;;;;;;5.37;3.23;;;4.10;99.90;;;;;;5071263;28;20465;-73
2023/11/27 08:21:18;;;;;;;3.70;3.03;;;4.10;99.90;;;;;;5071423;28;20254;-72
2023/11/27 08:23:44;;;;;;;4.33;2.97;;;3.90;99.90;;;;;;5050451;28;20216;-73
2023/11/27 08:26:11;;;;;;;3.27;2.83;;;3.90;99.90;;;;;;5078122;28;20444;-72
2023/11/27 08:28:36;;;;;;;6.47;2.93;;;3.80;99.90;;;;;;5051242;28;20268;-72
2023/11/27 08:31:04;;;;;;;4.67;2.73;;;3.90;99.90;;;;;;5078310;28;20565;-72
2023/11/27 08:33:30;;;;;;;4.83;3.97;;;3.90;99.90;;;;;;5081885;28;20235;-72
2023/11/27 08:35:57;;;;;;;8.43;3.53;;;3.90;99.90;;;;;;5052126;28;20569;-72
2023/11/27 08:38:24;;;;;;;8.40;3.70;;;4.00;99.90;;;;;;5036984;28;20211;-73
2023/11/27 08:40:51;;;;;;;4.00;3.20;;;4.10;99.90;;;;;;5045749;28;20972;-72
2023/11/27 08:43:16;;;;;;;6.30;3.60;;;4.10;99.90;;;;;;5022646;28;20519;-72
2023/11/27 08:45:42;;;;;;;3.30;3.00;;;4.10;99.90;;;;;;5032438;28;20910;-72
2023/11/27 08:48:08;;;;;;;7.97;3.37;;;4.00;99.90;;;;;;5053932;28;20308;-72
2023/11/27 08:50:36;;;;;;;4.70;2.87;;;4.00;99.90;;;;;;5048787;28;20209;-72
2023/11/27 08:53:05;;;;;;;7.10;3.10;;;4.10;99.90;;;;;;5049564;28;20502;-72
2023/11/27 08:55:31;;;;;;;6.80;3.70;;;4.10;99.90;;;;;;5021199;28;20454;-73
2023/11/27 08:58:00;;;;;;;3.90;3.07;;;4.00;99.90;;;;;;5045463;28;20454;-71
2023/11/27 09:00:28;;;;;;;3.90;2.27;;;3.90;99.90;;;;;;5039753;28;20297;-73
2023/11/27 09:02:56;;;;;;;5.60;2.90;;;3.80;99.90;;;;;;5046228;28;20467;-72
2023/11/27 09:05:26;;;;;;;3.93;3.23;;;3.80;99.90;;;;;;5033616;28;20455;-72
2023/11/27 09:07:53;;;;;;;2.97;2.33;;;3.80;99.90;;;;;;5015814;28;20451;-73
2023/11/27 09:10:22;;;;;;;3.90;3.00;;;3.80;99.90;;;;;;5052792;28;20964;-73
2023/11/27 09:12:48;;;;;;;4.17;3.20;;;3.90;99.90;;;;;;5031426;28;20477;-72
2023/11/27 09:15:18;;;;;;;4.93;2.60;;;3.80;99.90;;;;;;5028316;28;20512;-72
2023/11/27 09:17:44;;;;;;;9.70;3.50;;;3.80;99.90;;;;;;5034222;28;20548;-73
2023/11/27 09:20:11;;;;;;;3.70;2.27;;;3.80;99.90;;;;;;5017034;28;20447;-72
2023/11/27 09:22:37;;;;;;;3.80;2.70;;;3.70;99.90;;;;;;5030286;28;20452;-72
2023/11/27 09:25:08;;;;;;;3.60;2.70;;;3.60;99.90;;;;;;5049450;28;20538;-71
2023/11/27 09:27:35;;;;;;;4.23;3.10;;;3.60;99.90;;;;;;5050961;28;20462;-72
2023/11/27 09:30:01;;;;;;;3.43;2.40;;;3.60;99.90;;;;;;5049764;28;20470;-72
2023/11/27 09:32:26;;;;;;;3.63;2.37;;;3.50;99.90;;;;;;5064859;28;20462;-73
2023/11/27 09:34:52;;;;;;;5.87;2.60;;;3.50;99.90;;;;;;5033925;28;20216;-72
2023/11/27 09:37:18;;;;;;;3.07;2.20;;;3.40;99.90;;;;;;5047909;28;20207;-71
2023/11/27 09:39:43;;;;;;;4.20;2.87;;;3.40;99.90;;;;;;5042900;28;20358;-71
2023/11/27 09:42:09;;;;;;;2.83;2.60;;;3.40;99.90;;;;;;5032970;28;20224;-72
2023/11/27 09:44:36;;;;;;;4.50;3.27;;;3.50;99.90;;;;;;5050548;28;20221;-72
2023/11/27 09:47:02;;;;;;;3.37;2.87;;;3.60;99.90;;;;;;5057677;28;20243;-71
2023/11/27 09:49:31;;;;;;;3.97;2.27;;;3.60;99.90;;;;;;5051103;28;20443;-73
2023/11/27 09:52:01;;;;;;;4.40;2.97;;;3.50;99.90;;;;;;5047042;28;20875;-72
2023/11/27 09:54:39;;;;;;;3.10;2.60;;;3.50;99.90;;;;;;5057129;28;20509;-72
2023/11/27 09:57:07;;;;;;;6.07;3.27;;;3.40;99.90;;;;;;5027752;28;20505;-72
2023/11/27 09:59:38;;;;;;;2.97;2.10;;;3.40;99.90;;;;;;5056087;28;20453;-72
2023/11/27 10:02:08;;;;;;;3.80;3.50;;;3.30;99.90;;;;;;5032422;28;20467;-72
2023/11/27 10:04:35;;;;;;;3.60;2.40;;;3.30;99.90;;;;;;5031101;28;20454;-72
2023/11/27 10:07:01;;;;;;;3.63;2.30;;;3.30;99.90;;;;;;5055436;28;20467;-72
2023/11/27 10:09:27;;;;;;;2.50;2.30;;;3.20;99.90;;;;;;5039561;28;20435;-73
2023/11/27 10:12:00;;;;;;;3.70;2.70;;;3.20;99.90;;;;;;5033397;28;20594;-72
2023/11/27 10:14:27;;;;;;;2.50;2.10;;;3.20;99.90;;;;;;5032408;28;20208;-72
2023/11/27 10:16:58;;;;;;;2.80;1.83;;;3.30;99.90;;;;;;5049318;28;20514;-73
2023/11/27 10:19:25;;;;;;;1.87;1.77;;;3.30;99.90;;;;;;5048718;28;20585;-73
2023/11/27 10:21:51;;;;;;;6.93;2.70;;;3.30;99.90;;;;;;5045075;28;20454;-73
2023/11/27 10:24:17;;;;;;;3.10;1.67;;;3.30;99.90;;;;;;5024446;28;20457;-72
2023/11/27 10:26:44;;;;;;;2.97;2.07;;;3.20;99.90;;;;;;5031919;28;20208;-72
2023/11/27 10:29:25;;;;;;;5.00;2.40;;;3.30;99.90;;;;;;5049895;28;20223;-72
2023/11/27 10:31:58;;;;;;;2.10;1.80;;;3.30;99.90;;;;;;5029601;28;20470;-72
2023/11/27 10:34:31;;;;;;;3.60;2.90;;;3.30;99.90;;;;;;5060294;28;20534;-71
2023/11/27 10:37:00;;;;;;;8.33;3.27;;;3.20;99.90;;;;;;5029570;28;20453;-72
2023/11/27 10:39:32;;;;;;;4.33;2.37;;;3.30;99.90;;;;;;5028449;28;20513;-72
2023/11/27 10:42:00;;;;;;;3.87;3.20;;;3.30;99.90;;;;;;5044095;28;20517;-72
2023/11/27 10:44:29;;;;;;;5.87;3.10;;;3.20;99.90;;;;;;5025611;28;20483;-72
2023/11/27 10:46:55;;;;;;;4.60;3.13;;;3.20;99.90;;;;;;5012452;28;20469;-71
2023/11/27 10:49:24;;;;;;;3.40;3.10;;;3.20;99.90;;;;;;5027918;28;20470;-72
2023/11/27 10:51:52;;;;;;;2.50;2.30;;;3.20;99.90;;;;;;5042761;28;20557;-73
2023/11/27 10:54:19;;;;;;;3.03;2.40;;;3.20;99.90;;;;;;5027212;28;20447;-73
2023/11/27 10:56:46;;;;;;;1.70;1.53;;;3.20;99.90;;;;;;5012158;28;20451;-72
2023/11/27 10:59:13;;;;;;;1.90;1.70;;;3.20;99.90;;;;;;5043225;28;20481;-72
2023/11/27 11:01:45;;;;;;;2.23;1.87;;;3.10;99.90;;;;;;5028597;28;20459;-72
2023/11/27 11:04:11;;;;;;;1.83;1.73;;;3.10;99.90;;;;;;5046930;28;20535;-72
2023/11/27 11:06:45;;;;;;;2.77;2.00;;;3.00;99.90;;;;;;5045488;28;20535;-72
2023/11/27 11:09:15;;;;;;;2.20;1.87;;;3.10;99.90;;;;;;5052047;28;21008;-72
2023/11/27 11:11:43;;;;;;;1.73;1.50;;;3.00;99.90;;;;;;5030148;28;20478;-72
2023/11/27 11:14:13;;;;;;;3.93;2.07;;;3.00;99.90;;;;;;5014405;28;20443;-73
2023/11/27 11:16:52;;;;;;;3.57;1.60;;;3.00;99.90;;;;;;5046177;28;20510;-72
2023/11/27 11:19:31;;;;;;;2.90;1.50;;;3.10;99.90;;;;;;5041112;28;20472;-72
2023/11/27 11:22:21;;;;;;;2.17;1.97;;;3.20;99.90;;;;;;5059927;28;20498;-72
2023/11/27 11:24:55;;;;;;;1.50;1.40;;;3.20;99.90;;;;;;5045710;28;20925;-72
2023/11/27 11:27:41;;;;;;;2.50;1.87;;;3.30;99.90;;;;;;5051407;28;20946;-72
2023/11/27 11:30:12;;;;;;;3.80;2.00;;;3.30;99.90;;;;;;5053895;28;20450;-72
2023/11/27 11:32:38;;;;;;;2.13;1.70;;;3.10;99.90;;;;;;5064228;28;20474;-72
2023/11/27 11:35:04;;;;;;;4.10;2.93;;;3.10;99.90;;;;;;5052776;28;20461;-72
2023/11/27 11:37:33;;;;;;;4.67;3.77;;;3.20;99.90;;;;;;5057052;28;20238;-72
2023/11/27 11:39:59;;;;;;;6.70;3.47;;;3.20;99.90;;;;;;5045500;28;20805;-73
2023/11/27 11:42:32;;;;;;;2.30;2.10;;;3.20;99.90;;;;;;5050948;28;20451;-72
2023/11/27 11:45:16;;;;;;;2.37;2.17;;;3.20;99.90;;;;;;5045614;28;20470;-72
2023/11/27 11:47:51;;;;;;;3.40;1.93;;;3.20;99.90;;;;;;5033832;28;20512;-72
2023/11/27 11:50:40;;;;;;;2.33;1.97;;;3.20;99.90;;;;;;5053465;28;20445;-72
2023/11/27 11:53:28;;;;;;;3.87;2.00;;;3.20;99.90;;;;;;5049748;28;20516;-72
2023/11/27 11:55:56;;;;;;;3.97;2.63;;;3.10;99.90;;;;;;5028989;28;20457;-72
2023/11/27 11:58:22;;;;;;;3.70;2.37;;;3.10;99.90;;;;;;5057586;28;20461;-73
2023/11/27 12:01:00;;;;;;;5.17;2.87;;;3.10;99.90;;;;;;5040784;28;20462;-72
2023/11/27 12:03:30;;;;;;;3.50;2.10;;;3.20;99.90;;;;;;5012705;28;20500;-72
2023/11/27 12:05:58;;;;;;;6.37;3.20;;;3.10;99.90;;;;;;5036471;28;20454;-73
2023/11/27 12:08:25;;;;;;;4.87;3.80;;;3.30;99.90;;;;;;5041939;28;20434;-72
2023/11/27 12:10:53;;;;;;;2.00;1.90;;;3.30;99.90;;;;;;5032367;28;20473;-72
2023/11/27 12:13:23;;;;;;;2.73;2.20;;;3.30;99.90;;;;;;5037645;28;20467;-73
2023/11/27 12:15:56;;;;;;;3.30;2.20;;;3.30;99.90;;;;;;5046549;28;20469;-72
2023/11/27 12:18:22;;;;;;;2.20;2.00;;;3.30;99.90;;;;;;5033375;28;20450;-72
2023/11/27 12:20:49;;;;;;;2.10;1.90;;;3.30;99.90;;;;;;5049422;28;20533;-72
2023/11/27 12:23:15;;;;;;;2.00;1.73;;;3.10;99.90;;;;;;5055808;28;20458;-72
2023/11/27 12:25:41;;;;;;;2.20;2.10;;;3.00;99.90;;;;;;5051275;28;20446;-72
2023/11/27 12:28:08;;;;;;;1.53;1.43;;;3.10;99.90;;;;;;5065248;28;20220;-73
2023/11/27 12:30:34;;;;;;;3.43;1.77;;;3.10;99.90;;;;;;5069192;28;20552;-71
2023/11/27 12:33:04;;;;;;;2.23;1.70;;;3.20;99.90;;;;;;5070784;28;20474;-72
2023/11/27 12:35:30;;;;;;;4.13;2.33;;;3.20;99.90;;;;;;5051076;28;20514;-72
2023/11/27 12:38:01;;;;;;;1.80;1.70;;;3.30;99.90;;;;;;5049596;28;20975;-71
2023/11/27 12:40:26;;;;;;;5.50;1.83;;;3.10;99.90;;;;;;5054004;28;20461;-72
2023/11/27 12:42:52;;;;;;;2.13;1.67;;;3.10;99.90;;;;;;5052906;28;20465;-71
2023/11/27 12:45:21;;;;;;;1.90;1.40;;;3.10;99.90;;;;;;5071389;28;20223;-72
2023/11/27 12:47:55;;;;;;;1.90;1.00;;;2.90;99.90;;;;;;5053413;28;20278;-71
2023/11/27 12:50:38;;;;;;;2.70;1.50;;;3.10;99.90;;;;;;5045053;28;20461;-72
2023/11/27 12:53:08;;;;;;;1.47;1.40;;;3.00;99.90;;;;;;5051550;28;20462;-72
2023/11/27 12:55:38;;;;;;;3.00;1.90;;;3.00;99.90;;;;;;5036302;28;20467;-71
2023/11/27 12:58:11;;;;;;;0.90;0.90;;;3.10;99.90;;;;;;5046341;28;20538;-71